sensor_id;sensor_type;location;lat;lon;timestamp;temperature;humidity
51007;DHT22;37034;47.886;-3.904;2024-02-14T00:00:00;14.90;99.90
51007;DHT22;37034;47.886;-3.904;2024-02-14T00:02:26;14.90;99.90
51007;DHT22;37034;47.886;-3.904;2024-02-14T00:04:53;14.90;99.90
51007;DHT22;37034;47.886;-3.904;2024-02-14T00:07:19;14.90;99.90
51007;DHT22;37034;47.886;-3.904;2024-02-14T00:09:44;15.00;99.90
51007;DHT22;37034;47.886;-3.904;2024-02-14T00:12:10;15.00;99.90
51007;DHT22;37034;47.886;-3.904;2024-02-14T00:14:37;15.00;99.90
51007;DHT22;37034;47.886;-3.904;2024-02-14T00:17:03;15.00;99.90
51007;DHT22;37034;47.886;-3.904;2024-02-14T00:19:29;15.00;99.90
51007;DHT22;37034;47.886;-3.904;2024-02-14T00:21:55;15.00;99.90
51007;DHT22;37034;47.886;-3.904;2024-02-14T00:24:20;15.00;99.90
51007;DHT22;37034;47.886;-3.904;2024-02-14T00:26:46;15.00;99.90
51007;DHT22;37034;47.886;-3.904;2024-02-14T00:29:12;14.90;99.90
51007;DHT22;37034;47.886;-3.904;2024-02-14T00:31:37;14.90;99.90
51007;DHT22;37034;47.886;-3.904;2024-02-14T00:34:03;15.00;99.90
51007;DHT22;37034;47.886;-3.904;2024-02-14T00:36:30;15.00;99.90
51007;DHT22;37034;47.886;-3.904;2024-02-14T00:38:55;15.00;99.90
51007;DHT22;37034;47.886;-3.904;2024-02-14T00:41:21;15.00;99.90
51007;DHT22;37034;47.886;-3.904;2024-02-14T00:43:47;15.00;99.90
51007;DHT22;37034;47.886;-3.904;2024-02-14T00:46:16;14.80;99.90
51007;DHT22;37034;47.886;-3.904;2024-02-14T00:48:42;14.80;99.90
51007;DHT22;37034;47.886;-3.904;2024-02-14T00:51:10;14.80;99.90
51007;DHT22;37034;47.886;-3.904;2024-02-14T00:53:35;14.90;99.90
51007;DHT22;37034;47.886;-3.904;2024-02-14T00:56:01;14.90;99.90
51007;DHT22;37034;47.886;-3.904;2024-02-14T00:58:26;15.00;99.90
51007;DHT22;37034;47.886;-3.904;2024-02-14T01:00:52;15.00;99.90
51007;DHT22;37034;47.886;-3.904;2024-02-14T01:03:18;15.00;99.90
51007;DHT22;37034;47.886;-3.904;2024-02-14T01:05:43;14.90;99.90
51007;DHT22;37034;47.886;-3.904;2024-02-14T01:08:09;15.00;99.90
51007;DHT22;37034;47.886;-3.904;2024-02-14T01:10:34;14.90;99.90
51007;DHT22;37034;47.886;-3.904;2024-02-14T01:13:01;15.00;99.90
51007;DHT22;37034;47.886;-3.904;2024-02-14T01:15:26;15.00;99.90
51007;DHT22;37034;47.886;-3.904;2024-02-14T01:17:52;14.90;99.90
51007;DHT22;37034;47.886;-3.904;2024-02-14T01:20:17;14.90;99.90
51007;DHT22;37034;47.886;-3.904;2024-02-14T01:22:43;14.90;99.90
51007;DHT22;37034;47.886;-3.904;2024-02-14T01:25:11;14.90;99.90
51007;DHT22;37034;47.886;-3.904;2024-02-14T01:27:37;15.00;99.90
51007;DHT22;37034;47.886;-3.904;2024-02-14T01:30:03;14.90;99.90
51007;DHT22;37034;47.886;-3.904;2024-02-14T01:32:30;14.90;99.90
51007;DHT22;37034;47.886;-3.904;2024-02-14T01:34:57;14.90;99.90
51007;DHT22;37034;47.886;-3.904;2024-02-14T01:37:22;14.90;99.90
51007;DHT22;37034;47.886;-3.904;2024-02-14T01:39:48;14.90;99.90
51007;DHT22;37034;47.886;-3.904;2024-02-14T01:42:13;14.90;99.90
51007;DHT22;37034;47.886;-3.904;2024-02-14T01:44:40;14.90;99.90
51007;DHT22;37034;47.886;-3.904;2024-02-14T01:47:05;14.90;99.90
51007;DHT22;37034;47.886;-3.904;2024-02-14T01:49:33;14.90;99.90
51007;DHT22;37034;47.886;-3.904;2024-02-14T01:52:02;14.90;99.90
51007;DHT22;37034;47.886;-3.904;2024-02-14T01:54:29;14.90;99.90
51007;DHT22;37034;47.886;-3.904;2024-02-14T01:56:56;14.90;99.90
51007;DHT22;37034;47.886;-3.904;2024-02-14T01:59:23;14.90;99.90
51007;DHT22;37034;47.886;-3.904;2024-02-14T02:01:50;14.90;99.90
51007;DHT22;37034;47.886;-3.904;2024-02-14T02:04:17;14.80;99.90
51007;DHT22;37034;47.886;-3.904;2024-02-14T02:06:43;14.80;99.90
51007;DHT22;37034;47.886;-3.904;2024-02-14T02:09:09;14.70;99.90
51007;DHT22;37034;47.886;-3.904;2024-02-14T02:11:51;14.60;99.90
51007;DHT22;37034;47.886;-3.904;2024-02-14T02:14:19;14.60;99.90
51007;DHT22;37034;47.886;-3.904;2024-02-14T02:16:47;14.60;99.90
51007;DHT22;37034;47.886;-3.904;2024-02-14T02:19:13;14.60;99.90
51007;DHT22;37034;47.886;-3.904;2024-02-14T02:21:41;14.70;99.90
51007;DHT22;37034;47.886;-3.904;2024-02-14T02:24:08;14.80;99.90
51007;DHT22;37034;47.886;-3.904;2024-02-14T02:26:34;14.90;99.90
51007;DHT22;37034;47.886;-3.904;2024-02-14T02:28:59;14.90;99.90
51007;DHT22;37034;47.886;-3.904;2024-02-14T02:31:25;14.90;99.90
51007;DHT22;37034;47.886;-3.904;2024-02-14T02:33:51;14.90;99.90
51007;DHT22;37034;47.886;-3.904;2024-02-14T02:36:17;14.80;99.90
51007;DHT22;37034;47.886;-3.904;2024-02-14T02:38:43;14.80;99.90
51007;DHT22;37034;47.886;-3.904;2024-02-14T02:41:09;14.80;99.90
51007;DHT22;37034;47.886;-3.904;2024-02-14T02:43:35;14.70;99.90
51007;DHT22;37034;47.886;-3.904;2024-02-14T02:46:01;14.70;99.90
51007;DHT22;37034;47.886;-3.904;2024-02-14T02:48:27;14.70;99.90
51007;DHT22;37034;47.886;-3.904;2024-02-14T02:50:53;14.80;99.90
51007;DHT22;37034;47.886;-3.904;2024-02-14T02:53:19;14.70;99.90
51007;DHT22;37034;47.886;-3.904;2024-02-14T02:55:45;14.80;99.90
51007;DHT22;37034;47.886;-3.904;2024-02-14T02:58:11;14.90;99.90
51007;DHT22;37034;47.886;-3.904;2024-02-14T03:00:37;14.90;99.90
51007;DHT22;37034;47.886;-3.904;2024-02-14T03:03:03;14.90;99.90
51007;DHT22;37034;47.886;-3.904;2024-02-14T03:05:30;14.90;99.90
51007;DHT22;37034;47.886;-3.904;2024-02-14T03:07:59;14.90;99.90
51007;DHT22;37034;47.886;-3.904;2024-02-14T03:10:25;15.00;99.90
51007;DHT22;37034;47.886;-3.904;2024-02-14T03:12:51;15.00;99.90
51007;DHT22;37034;47.886;-3.904;2024-02-14T03:15:18;15.00;99.90
51007;DHT22;37034;47.886;-3.904;2024-02-14T03:17:44;15.00;99.90
51007;DHT22;37034;47.886;-3.904;2024-02-14T03:20:11;15.00;99.90
51007;DHT22;37034;47.886;-3.904;2024-02-14T03:22:41;15.10;99.90
51007;DHT22;37034;47.886;-3.904;2024-02-14T03:25:15;15.10;99.90
51007;DHT22;37034;47.886;-3.904;2024-02-14T03:27:42;15.10;99.90
51007;DHT22;37034;47.886;-3.904;2024-02-14T03:30:08;15.10;99.90
51007;DHT22;37034;47.886;-3.904;2024-02-14T03:32:34;15.10;99.90
51007;DHT22;37034;47.886;-3.904;2024-02-14T03:35:00;15.00;99.90
51007;DHT22;37034;47.886;-3.904;2024-02-14T03:37:26;15.10;99.90
51007;DHT22;37034;47.886;-3.904;2024-02-14T03:39:52;15.10;99.90
51007;DHT22;37034;47.886;-3.904;2024-02-14T03:42:18;15.10;99.90
51007;DHT22;37034;47.886;-3.904;2024-02-14T03:44:45;15.10;99.90
51007;DHT22;37034;47.886;-3.904;2024-02-14T03:47:11;15.10;99.90
51007;DHT22;37034;47.886;-3.904;2024-02-14T03:49:38;15.10;99.90
51007;DHT22;37034;47.886;-3.904;2024-02-14T03:52:06;15.00;99.90
51007;DHT22;37034;47.886;-3.904;2024-02-14T03:54:38;15.10;99.90
51007;DHT22;37034;47.886;-3.904;2024-02-14T03:57:04;15.00;99.90
51007;DHT22;37034;47.886;-3.904;2024-02-14T03:59:35;15.00;99.90
51007;DHT22;37034;47.886;-3.904;2024-02-14T04:02:01;15.00;99.90
51007;DHT22;37034;47.886;-3.904;2024-02-14T04:04:27;15.10;99.90
51007;DHT22;37034;47.886;-3.904;2024-02-14T04:06:53;15.10;99.90
51007;DHT22;37034;47.886;-3.904;2024-02-14T04:09:18;15.10;99.90
51007;DHT22;37034;47.886;-3.904;2024-02-14T04:11:44;15.10;99.90
51007;DHT22;37034;47.886;-3.904;2024-02-14T04:14:10;15.10;99.90
51007;DHT22;37034;47.886;-3.904;2024-02-14T04:16:36;15.10;99.90
51007;DHT22;37034;47.886;-3.904;2024-02-14T04:19:02;15.10;99.90
51007;DHT22;37034;47.886;-3.904;2024-02-14T04:21:28;15.10;99.90
51007;DHT22;37034;47.886;-3.904;2024-02-14T04:23:54;15.10;99.90
51007;DHT22;37034;47.886;-3.904;2024-02-14T04:26:20;15.10;99.90
51007;DHT22;37034;47.886;-3.904;2024-02-14T04:28:46;15.10;99.90
51007;DHT22;37034;47.886;-3.904;2024-02-14T04:31:12;15.10;99.90
51007;DHT22;37034;47.886;-3.904;2024-02-14T04:33:37;15.00;99.90
51007;DHT22;37034;47.886;-3.904;2024-02-14T04:36:03;15.10;99.90
51007;DHT22;37034;47.886;-3.904;2024-02-14T04:38:30;15.00;99.90
51007;DHT22;37034;47.886;-3.904;2024-02-14T04:40:56;14.90;99.90
51007;DHT22;37034;47.886;-3.904;2024-02-14T04:43:24;14.90;99.90
51007;DHT22;37034;47.886;-3.904;2024-02-14T04:45:49;15.00;99.90
51007;DHT22;37034;47.886;-3.904;2024-02-14T04:48:16;14.90;99.90
51007;DHT22;37034;47.886;-3.904;2024-02-14T04:50:42;14.90;99.90
51007;DHT22;37034;47.886;-3.904;2024-02-14T04:53:07;14.90;99.90
51007;DHT22;37034;47.886;-3.904;2024-02-14T04:55:33;14.90;99.90
51007;DHT22;37034;47.886;-3.904;2024-02-14T04:57:59;14.80;99.90
51007;DHT22;37034;47.886;-3.904;2024-02-14T05:00:24;14.80;99.90
51007;DHT22;37034;47.886;-3.904;2024-02-14T05:02:50;14.80;99.90
51007;DHT22;37034;47.886;-3.904;2024-02-14T05:05:16;14.80;99.90
51007;DHT22;37034;47.886;-3.904;2024-02-14T05:07:42;14.80;99.90
51007;DHT22;37034;47.886;-3.904;2024-02-14T05:10:08;14.70;99.90
51007;DHT22;37034;47.886;-3.904;2024-02-14T05:12:34;14.60;99.90
51007;DHT22;37034;47.886;-3.904;2024-02-14T05:14:59;14.70;99.90
51007;DHT22;37034;47.886;-3.904;2024-02-14T05:17:25;14.70;99.90
51007;DHT22;37034;47.886;-3.904;2024-02-14T05:19:50;14.70;99.90
51007;DHT22;37034;47.886;-3.904;2024-02-14T05:22:16;14.70;99.90
51007;DHT22;37034;47.886;-3.904;2024-02-14T05:24:42;14.70;99.90
51007;DHT22;37034;47.886;-3.904;2024-02-14T05:27:08;14.70;99.90
51007;DHT22;37034;47.886;-3.904;2024-02-14T05:29:33;14.70;99.90
51007;DHT22;37034;47.886;-3.904;2024-02-14T05:31:59;14.70;99.90
51007;DHT22;37034;47.886;-3.904;2024-02-14T05:34:25;14.80;99.90
51007;DHT22;37034;47.886;-3.904;2024-02-14T05:36:50;14.70;99.90
51007;DHT22;37034;47.886;-3.904;2024-02-14T05:39:17;14.70;99.90
51007;DHT22;37034;47.886;-3.904;2024-02-14T05:41:44;14.60;99.90
51007;DHT22;37034;47.886;-3.904;2024-02-14T05:44:09;14.60;99.90
51007;DHT22;37034;47.886;-3.904;2024-02-14T05:46:35;14.60;99.90
51007;DHT22;37034;47.886;-3.904;2024-02-14T05:49:01;14.60;99.90
51007;DHT22;37034;47.886;-3.904;2024-02-14T05:51:27;14.60;99.90
51007;DHT22;37034;47.886;-3.904;2024-02-14T05:53:52;14.60;99.90
51007;DHT22;37034;47.886;-3.904;2024-02-14T05:56:18;14.60;99.90
51007;DHT22;37034;47.886;-3.904;2024-02-14T05:58:43;14.70;99.90
51007;DHT22;37034;47.886;-3.904;2024-02-14T06:01:09;14.60;99.90
51007;DHT22;37034;47.886;-3.904;2024-02-14T06:03:35;14.60;99.90
51007;DHT22;37034;47.886;-3.904;2024-02-14T06:06:00;14.60;99.90
51007;DHT22;37034;47.886;-3.904;2024-02-14T06:08:26;14.70;99.90
51007;DHT22;37034;47.886;-3.904;2024-02-14T06:10:55;14.70;99.90
51007;DHT22;37034;47.886;-3.904;2024-02-14T06:13:20;14.70;99.90
51007;DHT22;37034;47.886;-3.904;2024-02-14T06:15:46;14.60;99.90
51007;DHT22;37034;47.886;-3.904;2024-02-14T06:18:11;14.60;99.90
51007;DHT22;37034;47.886;-3.904;2024-02-14T06:20:37;14.60;99.90
51007;DHT22;37034;47.886;-3.904;2024-02-14T06:23:04;14.60;99.90
51007;DHT22;37034;47.886;-3.904;2024-02-14T06:25:30;14.60;99.90
51007;DHT22;37034;47.886;-3.904;2024-02-14T06:27:55;14.60;99.90
51007;DHT22;37034;47.886;-3.904;2024-02-14T06:30:21;14.60;99.90
51007;DHT22;37034;47.886;-3.904;2024-02-14T06:32:47;14.60;99.90
51007;DHT22;37034;47.886;-3.904;2024-02-14T06:35:12;14.60;99.90
51007;DHT22;37034;47.886;-3.904;2024-02-14T06:37:40;14.70;99.90
51007;DHT22;37034;47.886;-3.904;2024-02-14T06:40:06;14.70;99.90
51007;DHT22;37034;47.886;-3.904;2024-02-14T06:42:34;14.70;99.90
51007;DHT22;37034;47.886;-3.904;2024-02-14T06:44:59;14.70;99.90
51007;DHT22;37034;47.886;-3.904;2024-02-14T06:47:25;14.60;99.90
51007;DHT22;37034;47.886;-3.904;2024-02-14T06:49:55;14.70;99.90
51007;DHT22;37034;47.886;-3.904;2024-02-14T06:52:21;14.70;99.90
51007;DHT22;37034;47.886;-3.904;2024-02-14T06:54:47;14.70;99.90
51007;DHT22;37034;47.886;-3.904;2024-02-14T06:57:14;14.70;99.90
51007;DHT22;37034;47.886;-3.904;2024-02-14T06:59:39;14.70;99.90
51007;DHT22;37034;47.886;-3.904;2024-02-14T07:02:05;14.70;99.90
51007;DHT22;37034;47.886;-3.904;2024-02-14T07:04:31;14.60;99.90
51007;DHT22;37034;47.886;-3.904;2024-02-14T07:06:58;14.60;99.90
51007;DHT22;37034;47.886;-3.904;2024-02-14T07:09:23;14.60;99.90
51007;DHT22;37034;47.886;-3.904;2024-02-14T07:11:51;14.70;99.90
51007;DHT22;37034;47.886;-3.904;2024-02-14T07:14:19;14.70;99.90
51007;DHT22;37034;47.886;-3.904;2024-02-14T07:16:45;14.80;99.90
51007;DHT22;37034;47.886;-3.904;2024-02-14T07:19:10;14.80;99.90
51007;DHT22;37034;47.886;-3.904;2024-02-14T07:21:36;14.70;99.90
51007;DHT22;37034;47.886;-3.904;2024-02-14T07:24:04;14.60;99.90
51007;DHT22;37034;47.886;-3.904;2024-02-14T07:26:30;14.60;99.90
51007;DHT22;37034;47.886;-3.904;2024-02-14T07:28:56;14.60;99.90
51007;DHT22;37034;47.886;-3.904;2024-02-14T07:31:22;14.60;99.90
51007;DHT22;37034;47.886;-3.904;2024-02-14T07:33:48;14.60;99.90
51007;DHT22;37034;47.886;-3.904;2024-02-14T07:36:14;14.70;99.90
51007;DHT22;37034;47.886;-3.904;2024-02-14T07:38:40;14.80;99.90
51007;DHT22;37034;47.886;-3.904;2024-02-14T07:41:08;14.80;99.90
51007;DHT22;37034;47.886;-3.904;2024-02-14T07:43:33;14.80;99.90
51007;DHT22;37034;47.886;-3.904;2024-02-14T07:45:59;14.80;99.90
51007;DHT22;37034;47.886;-3.904;2024-02-14T07:48:25;14.90;99.90
51007;DHT22;37034;47.886;-3.904;2024-02-14T07:50:50;14.90;99.90
51007;DHT22;37034;47.886;-3.904;2024-02-14T07:53:16;14.90;99.90
51007;DHT22;37034;47.886;-3.904;2024-02-14T07:55:41;14.90;99.90
51007;DHT22;37034;47.886;-3.904;2024-02-14T07:58:07;14.90;99.90
51007;DHT22;37034;47.886;-3.904;2024-02-14T08:00:33;14.90;99.90
51007;DHT22;37034;47.886;-3.904;2024-02-14T08:02:58;14.90;99.90
51007;DHT22;37034;47.886;-3.904;2024-02-14T08:05:24;15.00;99.90
51007;DHT22;37034;47.886;-3.904;2024-02-14T08:07:50;14.90;99.90
51007;DHT22;37034;47.886;-3.904;2024-02-14T08:10:16;14.90;99.90
51007;DHT22;37034;47.886;-3.904;2024-02-14T08:12:42;15.00;99.90
51007;DHT22;37034;47.886;-3.904;2024-02-14T08:15:08;14.90;99.90
51007;DHT22;37034;47.886;-3.904;2024-02-14T08:17:34;14.90;99.90
51007;DHT22;37034;47.886;-3.904;2024-02-14T08:20:00;14.90;99.90
51007;DHT22;37034;47.886;-3.904;2024-02-14T08:22:26;14.90;99.90
51007;DHT22;37034;47.886;-3.904;2024-02-14T08:24:52;14.90;99.90
51007;DHT22;37034;47.886;-3.904;2024-02-14T08:27:18;14.80;99.90
51007;DHT22;37034;47.886;-3.904;2024-02-14T08:29:44;14.90;99.90
51007;DHT22;37034;47.886;-3.904;2024-02-14T08:32:09;14.90;99.90
51007;DHT22;37034;47.886;-3.904;2024-02-14T08:34:35;14.90;99.90
51007;DHT22;37034;47.886;-3.904;2024-02-14T08:37:00;14.90;99.90
51007;DHT22;37034;47.886;-3.904;2024-02-14T08:39:26;14.90;99.90
51007;DHT22;37034;47.886;-3.904;2024-02-14T08:41:52;14.90;99.90
51007;DHT22;37034;47.886;-3.904;2024-02-14T08:44:18;15.00;99.90
51007;DHT22;37034;47.886;-3.904;2024-02-14T08:46:43;14.90;99.90
51007;DHT22;37034;47.886;-3.904;2024-02-14T08:49:13;15.00;99.90
51007;DHT22;37034;47.886;-3.904;2024-02-14T08:51:39;15.10;99.90
51007;DHT22;37034;47.886;-3.904;2024-02-14T08:54:05;15.00;99.90
51007;DHT22;37034;47.886;-3.904;2024-02-14T08:56:32;15.00;99.90
51007;DHT22;37034;47.886;-3.904;2024-02-14T08:59:00;15.00;99.90
51007;DHT22;37034;47.886;-3.904;2024-02-14T09:01:30;15.00;99.90
51007;DHT22;37034;47.886;-3.904;2024-02-14T09:03:56;14.90;99.90
51007;DHT22;37034;47.886;-3.904;2024-02-14T09:06:22;14.90;99.90
51007;DHT22;37034;47.886;-3.904;2024-02-14T09:08:48;15.00;99.90
51007;DHT22;37034;47.886;-3.904;2024-02-14T09:11:15;15.00;99.90
51007;DHT22;37034;47.886;-3.904;2024-02-14T09:13:41;14.90;99.90
51007;DHT22;37034;47.886;-3.904;2024-02-14T09:16:08;15.00;99.90
51007;DHT22;37034;47.886;-3.904;2024-02-14T09:18:34;15.00;99.90
51007;DHT22;37034;47.886;-3.904;2024-02-14T09:21:00;15.00;99.90
51007;DHT22;37034;47.886;-3.904;2024-02-14T09:23:27;15.10;99.90
51007;DHT22;37034;47.886;-3.904;2024-02-14T09:25:52;15.20;99.90
51007;DHT22;37034;47.886;-3.904;2024-02-14T09:28:20;15.20;99.90
51007;DHT22;37034;47.886;-3.904;2024-02-14T09:30:46;15.30;99.90
51007;DHT22;37034;47.886;-3.904;2024-02-14T09:33:11;15.30;99.90
51007;DHT22;37034;47.886;-3.904;2024-02-14T09:35:38;15.20;99.90
51007;DHT22;37034;47.886;-3.904;2024-02-14T09:38:11;15.30;99.90
51007;DHT22;37034;47.886;-3.904;2024-02-14T09:40:41;15.30;99.90
51007;DHT22;37034;47.886;-3.904;2024-02-14T09:43:24;15.30;99.90
51007;DHT22;37034;47.886;-3.904;2024-02-14T09:45:53;15.30;99.90
51007;DHT22;37034;47.886;-3.904;2024-02-14T09:48:20;15.30;99.90
51007;DHT22;37034;47.886;-3.904;2024-02-14T09:50:49;15.20;99.90
51007;DHT22;37034;47.886;-3.904;2024-02-14T09:53:15;15.20;99.90
51007;DHT22;37034;47.886;-3.904;2024-02-14T09:55:42;15.20;99.90
51007;DHT22;37034;47.886;-3.904;2024-02-14T09:58:07;15.30;99.90
51007;DHT22;37034;47.886;-3.904;2024-02-14T10:00:35;15.30;99.90
51007;DHT22;37034;47.886;-3.904;2024-02-14T10:03:01;15.30;99.90
51007;DHT22;37034;47.886;-3.904;2024-02-14T10:05:26;15.30;99.90
51007;DHT22;37034;47.886;-3.904;2024-02-14T10:07:56;15.30;99.90
51007;DHT22;37034;47.886;-3.904;2024-02-14T10:10:22;15.30;99.90
51007;DHT22;37034;47.886;-3.904;2024-02-14T10:12:48;15.30;99.90
51007;DHT22;37034;47.886;-3.904;2024-02-14T10:15:14;15.20;99.90
51007;DHT22;37034;47.886;-3.904;2024-02-14T10:17:40;15.20;99.90
51007;DHT22;37034;47.886;-3.904;2024-02-14T10:20:09;15.20;99.90
51007;DHT22;37034;47.886;-3.904;2024-02-14T10:22:35;15.10;99.90
51007;DHT22;37034;47.886;-3.904;2024-02-14T10:25:05;15.00;99.90
51007;DHT22;37034;47.886;-3.904;2024-02-14T10:27:40;15.00;99.90
51007;DHT22;37034;47.886;-3.904;2024-02-14T10:30:07;15.10;99.90
51007;DHT22;37034;47.886;-3.904;2024-02-14T10:32:39;15.10;99.90
51007;DHT22;37034;47.886;-3.904;2024-02-14T10:35:14;15.10;99.90
51007;DHT22;37034;47.886;-3.904;2024-02-14T10:37:43;15.30;99.90
51007;DHT22;37034;47.886;-3.904;2024-02-14T10:40:09;15.40;99.90
51007;DHT22;37034;47.886;-3.904;2024-02-14T10:42:35;15.50;99.90
51007;DHT22;37034;47.886;-3.904;2024-02-14T10:45:02;15.50;99.90
51007;DHT22;37034;47.886;-3.904;2024-02-14T10:47:35;15.50;99.90
51007;DHT22;37034;47.886;-3.904;2024-02-14T10:50:02;15.60;99.90
51007;DHT22;37034;47.886;-3.904;2024-02-14T10:52:32;15.60;99.90
51007;DHT22;37034;47.886;-3.904;2024-02-14T10:55:01;15.60;99.90
51007;DHT22;37034;47.886;-3.904;2024-02-14T10:57:27;15.70;99.90
51007;DHT22;37034;47.886;-3.904;2024-02-14T10:59:54;15.80;99.90
51007;DHT22;37034;47.886;-3.904;2024-02-14T11:02:22;16.00;99.90
51007;DHT22;37034;47.886;-3.904;2024-02-14T11:04:48;16.00;99.90
51007;DHT22;37034;47.886;-3.904;2024-02-14T11:07:19;16.10;99.90
51007;DHT22;37034;47.886;-3.904;2024-02-14T11:09:45;16.30;99.90
51007;DHT22;37034;47.886;-3.904;2024-02-14T11:12:11;16.40;99.90
51007;DHT22;37034;47.886;-3.904;2024-02-14T11:14:37;16.50;99.90
51007;DHT22;37034;47.886;-3.904;2024-02-14T11:17:09;16.60;99.90
51007;DHT22;37034;47.886;-3.904;2024-02-14T11:19:35;16.70;99.90
51007;DHT22;37034;47.886;-3.904;2024-02-14T11:22:16;16.60;99.90
51007;DHT22;37034;47.886;-3.904;2024-02-14T11:24:48;16.50;99.90
51007;DHT22;37034;47.886;-3.904;2024-02-14T11:27:14;16.60;99.90
51007;DHT22;37034;47.886;-3.904;2024-02-14T11:29:53;16.60;99.90
51007;DHT22;37034;47.886;-3.904;2024-02-14T11:32:18;16.60;99.90
51007;DHT22;37034;47.886;-3.904;2024-02-14T11:34:56;16.60;99.90
51007;DHT22;37034;47.886;-3.904;2024-02-14T11:37:30;16.60;99.90
51007;DHT22;37034;47.886;-3.904;2024-02-14T11:39:57;16.60;99.90
51007;DHT22;37034;47.886;-3.904;2024-02-14T11:42:23;16.60;99.90
51007;DHT22;37034;47.886;-3.904;2024-02-14T11:44:49;16.60;99.90
51007;DHT22;37034;47.886;-3.904;2024-02-14T11:47:15;16.50;99.90
51007;DHT22;37034;47.886;-3.904;2024-02-14T11:49:41;16.40;99.90
51007;DHT22;37034;47.886;-3.904;2024-02-14T11:52:11;16.40;99.90
51007;DHT22;37034;47.886;-3.904;2024-02-14T11:54:36;16.30;99.90
51007;DHT22;37034;47.886;-3.904;2024-02-14T11:57:03;16.20;99.90
51007;DHT22;37034;47.886;-3.904;2024-02-14T11:59:29;16.30;99.90
51007;DHT22;37034;47.886;-3.904;2024-02-14T12:01:55;16.30;99.90
51007;DHT22;37034;47.886;-3.904;2024-02-14T12:04:23;16.30;99.90
51007;DHT22;37034;47.886;-3.904;2024-02-14T12:06:50;16.30;99.90
51007;DHT22;37034;47.886;-3.904;2024-02-14T12:09:15;16.40;99.90
51007;DHT22;37034;47.886;-3.904;2024-02-14T12:11:41;16.40;99.90
51007;DHT22;37034;47.886;-3.904;2024-02-14T12:14:11;16.30;99.90
51007;DHT22;37034;47.886;-3.904;2024-02-14T12:16:38;16.20;99.90
51007;DHT22;37034;47.886;-3.904;2024-02-14T12:19:09;16.00;99.90
51007;DHT22;37034;47.886;-3.904;2024-02-14T12:21:39;15.80;99.90
51007;DHT22;37034;47.886;-3.904;2024-02-14T12:24:09;15.80;99.90
51007;DHT22;37034;47.886;-3.904;2024-02-14T12:26:36;15.80;99.90
51007;DHT22;37034;47.886;-3.904;2024-02-14T12:29:03;15.90;99.90
51007;DHT22;37034;47.886;-3.904;2024-02-14T12:31:29;15.90;99.90
51007;DHT22;37034;47.886;-3.904;2024-02-14T12:34:00;15.90;99.90
51007;DHT22;37034;47.886;-3.904;2024-02-14T12:36:34;15.90;99.90
51007;DHT22;37034;47.886;-3.904;2024-02-14T12:39:00;16.00;99.90
51007;DHT22;37034;47.886;-3.904;2024-02-14T12:41:30;15.90;99.90
51007;DHT22;37034;47.886;-3.904;2024-02-14T12:43:56;15.90;99.90
51007;DHT22;37034;47.886;-3.904;2024-02-14T12:46:21;16.00;99.90
51007;DHT22;37034;47.886;-3.904;2024-02-14T12:48:47;16.00;99.90
51007;DHT22;37034;47.886;-3.904;2024-02-14T12:51:14;16.00;99.90
51007;DHT22;37034;47.886;-3.904;2024-02-14T12:53:39;16.00;99.90
51007;DHT22;37034;47.886;-3.904;2024-02-14T12:56:06;16.00;99.90
51007;DHT22;37034;47.886;-3.904;2024-02-14T12:58:32;15.90;99.90
51007;DHT22;37034;47.886;-3.904;2024-02-14T13:00:58;15.90;99.90
51007;DHT22;37034;47.886;-3.904;2024-02-14T13:03:24;15.90;99.90
51007;DHT22;37034;47.886;-3.904;2024-02-14T13:05:51;16.00;99.90
51007;DHT22;37034;47.886;-3.904;2024-02-14T13:08:18;16.10;99.90
51007;DHT22;37034;47.886;-3.904;2024-02-14T13:10:44;16.00;99.90
51007;DHT22;37034;47.886;-3.904;2024-02-14T13:13:10;16.00;99.90
51007;DHT22;37034;47.886;-3.904;2024-02-14T13:15:36;16.00;99.90
51007;DHT22;37034;47.886;-3.904;2024-02-14T13:18:02;16.00;99.90
51007;DHT22;37034;47.886;-3.904;2024-02-14T13:20:28;15.90;99.90
51007;DHT22;37034;47.886;-3.904;2024-02-14T13:22:54;15.80;99.90
51007;DHT22;37034;47.886;-3.904;2024-02-14T13:25:20;15.70;99.90
51007;DHT22;37034;47.886;-3.904;2024-02-14T13:27:46;15.70;99.90
51007;DHT22;37034;47.886;-3.904;2024-02-14T13:30:12;15.70;99.90
51007;DHT22;37034;47.886;-3.904;2024-02-14T13:32:38;15.80;99.90
51007;DHT22;37034;47.886;-3.904;2024-02-14T13:35:04;15.70;99.90
51007;DHT22;37034;47.886;-3.904;2024-02-14T13:37:31;15.70;99.90
51007;DHT22;37034;47.886;-3.904;2024-02-14T13:39:57;15.80;99.90
51007;DHT22;37034;47.886;-3.904;2024-02-14T13:42:23;15.90;99.90
51007;DHT22;37034;47.886;-3.904;2024-02-14T13:44:48;15.90;99.90
51007;DHT22;37034;47.886;-3.904;2024-02-14T13:47:17;15.90;99.90
51007;DHT22;37034;47.886;-3.904;2024-02-14T13:49:47;15.80;99.90
51007;DHT22;37034;47.886;-3.904;2024-02-14T13:52:12;15.80;99.90
51007;DHT22;37034;47.886;-3.904;2024-02-14T13:54:38;15.80;99.90
51007;DHT22;37034;47.886;-3.904;2024-02-14T13:57:04;15.90;99.90
51007;DHT22;37034;47.886;-3.904;2024-02-14T13:59:30;15.80;99.90
51007;DHT22;37034;47.886;-3.904;2024-02-14T14:01:56;15.70;99.90
51007;DHT22;37034;47.886;-3.904;2024-02-14T14:04:21;15.70;99.90
51007;DHT22;37034;47.886;-3.904;2024-02-14T14:06:47;15.70;99.90
51007;DHT22;37034;47.886;-3.904;2024-02-14T14:09:13;15.60;99.90
51007;DHT22;37034;47.886;-3.904;2024-02-14T14:11:39;15.50;99.90
51007;DHT22;37034;47.886;-3.904;2024-02-14T14:14:05;15.60;99.90
51007;DHT22;37034;47.886;-3.904;2024-02-14T14:16:31;15.70;99.90
51007;DHT22;37034;47.886;-3.904;2024-02-14T14:19:00;15.70;99.90
51007;DHT22;37034;47.886;-3.904;2024-02-14T14:21:26;15.70;99.90
51007;DHT22;37034;47.886;-3.904;2024-02-14T14:23:52;15.60;99.90
51007;DHT22;37034;47.886;-3.904;2024-02-14T14:26:18;15.70;99.90
51007;DHT22;37034;47.886;-3.904;2024-02-14T14:28:45;15.90;99.90
51007;DHT22;37034;47.886;-3.904;2024-02-14T14:31:11;15.80;99.90
51007;DHT22;37034;47.886;-3.904;2024-02-14T14:33:37;15.70;99.90
51007;DHT22;37034;47.886;-3.904;2024-02-14T14:36:04;15.80;99.90
51007;DHT22;37034;47.886;-3.904;2024-02-14T14:38:30;15.90;99.90
51007;DHT22;37034;47.886;-3.904;2024-02-14T14:40:56;15.80;99.90
51007;DHT22;37034;47.886;-3.904;2024-02-14T14:43:22;15.80;99.90
51007;DHT22;37034;47.886;-3.904;2024-02-14T14:45:47;15.70;99.90
51007;DHT22;37034;47.886;-3.904;2024-02-14T14:48:15;15.70;99.90
51007;DHT22;37034;47.886;-3.904;2024-02-14T14:50:40;15.80;99.90
51007;DHT22;37034;47.886;-3.904;2024-02-14T14:53:06;15.80;99.90
51007;DHT22;37034;47.886;-3.904;2024-02-14T14:55:54;15.80;99.90
51007;DHT22;37034;47.886;-3.904;2024-02-14T14:58:24;15.80;99.90
51007;DHT22;37034;47.886;-3.904;2024-02-14T15:00:55;15.90;99.90
51007;DHT22;37034;47.886;-3.904;2024-02-14T15:03:22;15.90;99.90
51007;DHT22;37034;47.886;-3.904;2024-02-14T15:05:47;16.10;99.90
51007;DHT22;37034;47.886;-3.904;2024-02-14T15:08:13;16.10;99.90
51007;DHT22;37034;47.886;-3.904;2024-02-14T15:10:40;16.00;99.90